Meteorología y climatología de Navarra
Datos de la estación - Meteo Navarra

Estación de Aoiz GN

Altitud 534 m.


Datos desde el 26/03/2020 hasta el 27/03/2020 en horario solar
Los datos son PROVISIONALES

Anterior Página 1 de 1 Siguiente Descargar: Formato para Excel 2000 o superior   Formato csv   Formato para OpenOffice Calc
Fecha Temperatura Humedad relativa Radiación global Insolación Precipitación Vel. viento 10 m Vel. viento 10 m Dir. viento 10 m
ºC % W/m² s l/m² m/s km/h º
26/03/2020 0:00 3.2 80 0.0 0 0.0 0.3 1.2 55
26/03/2020 0:10 2.6 84 0.0 0 0.0 0.3 0.9 109
26/03/2020 0:20 2.7 84 0.0 0 0.0 0.6 2.3 42
26/03/2020 0:30 3.1 83 0.0 0 0.0 1.0 3.5 311
26/03/2020 0:40 3.7 80 0.0 0 0.0 2.3 8.1 293
26/03/2020 0:50 4.1 78 0.0 0 0.0 2.6 9.3 297
26/03/2020 1:00 3.9 79 0.0 0 0.0 1.8 6.3 292
26/03/2020 1:10 4.2 78 0.0 0 0.0 2.4 8.5 309
26/03/2020 1:20 4.3 79 0.0 0 0.0 1.3 4.6 16
26/03/2020 1:30 3.6 82 0.0 0 0.0 1.1 3.9 33
26/03/2020 1:40 3.3 83 0.0 0 0.0 1.0 3.7 38
26/03/2020 1:50 3.2 85 0.0 0 0.0 0.3 0.9 46
26/03/2020 2:00 3.4 85 0.0 0 0.0 0.5 1.7 45
26/03/2020 2:10 3.5 85 0.0 0 0.0 0.3 0.9 26
26/03/2020 2:20 3.6 87 0.0 0 0.0 0.1 0.5 61
26/03/2020 2:30 3.7 87 0.0 0 0.0 0.4 1.3 89
26/03/2020 2:40 3.8 86 0.0 0 0.0 0.5 1.8 49
26/03/2020 2:50 3.9 84 0.0 0 0.0 0.3 0.9 246
26/03/2020 3:00 3.8 87 0.0 0 0.0 1.0 3.6 309
26/03/2020 3:10 4.5 88 0.0 0 0.0 2.8 10.1 288
26/03/2020 3:20 5.3 85 0.0 0 0.0 3.0 10.8 296
26/03/2020 3:30 5.5 86 0.0 0 0.0 3.4 12.1 290
26/03/2020 3:40 5.6 85 0.0 0 0.0 3.8 13.5 290
26/03/2020 3:50 5.6 86 0.0 0 0.0 3.9 14.0 292
26/03/2020 4:00 5.6 86 0.0 0 0.0 3.5 12.6 301
26/03/2020 4:10 5.7 84 0.0 0 0.0 2.1 7.6 291
26/03/2020 4:20 6.1 78 0.0 0 0.0 1.2 4.4 296
26/03/2020 4:30 6.8 68 0.0 0 0.0 2.0 7.3 329
26/03/2020 4:40 7.0 64 0.0 0 0.0 1.6 5.8 333
26/03/2020 4:50 7.0 64 0.0 0 0.0 2.3 8.2 342
26/03/2020 5:00 7.1 63 0.0 0 0.0 2.4 8.5 319
26/03/2020 5:10 7.1 62 0.0 0 0.0 2.9 10.3 295
26/03/2020 5:20 6.9 64 0.0 0 0.0 1.1 4.0 73
26/03/2020 5:30 7.2 63 0.0 0 0.0 1.5 5.4 245
26/03/2020 5:40 7.1 63 0.0 0 0.0 2.9 10.5 302
26/03/2020 5:50 7.1 64 0.0 0 0.0 2.4 8.6 283
26/03/2020 6:00 7.1 63 0.0 0 0.0 2.5 9.1 295
26/03/2020 6:10 7.1 62 0.0 0 0.0 2.1 7.6 270
26/03/2020 6:20 7.2 59 0.0 0 0.0 3.8 13.5 292
26/03/2020 6:30 7.2 59 22.0 0 0.0 2.4 8.5 316
26/03/2020 6:40 7.2 60 41.6 0 0.0 2.4 8.7 355
26/03/2020 6:50 7.0 60 68.9 136 0.0 2.8 9.9 295
26/03/2020 7:00 7.0 58 90.2 198 0.0 1.7 6.1 297
26/03/2020 7:10 7.4 57 165.6 502 0.0 2.0 7.1 20
26/03/2020 7:20 7.6 56 208.5 584 0.0 2.5 9.1 346
26/03/2020 7:30 7.7 54 251.8 476 0.0 2.8 9.9 320
26/03/2020 7:40 8.2 51 308.0 586 0.0 2.3 8.4 13
26/03/2020 7:50 8.2 49 318.6 594 0.0 2.7 9.7 331
26/03/2020 8:00 8.3 49 354.5 600 0.0 3.8 13.5 6
26/03/2020 8:10 8.1 48 380.8 600 0.0 3.6 12.9 353
26/03/2020 8:20 8.4 49 452.0 600 0.0 3.8 13.6 0
26/03/2020 8:30 8.5 49 288.5 232 0.0 3.1 11.3 14
26/03/2020 8:40 7.9 52 360.1 352 0.0 3.7 13.5 342
26/03/2020 8:50 7.8 51 240.8 180 0.0 4.5 16.2 353
26/03/2020 9:00 7.2 52 183.7 34 0.0 3.7 13.4 328
26/03/2020 9:10 7.1 53 256.8 142 0.0 3.2 11.6 352
26/03/2020 9:20 7.1 51 277.5 156 0.0 4.2 15.3 12
26/03/2020 9:30 7.2 49 443.2 334 0.0 4.2 15.3 25
26/03/2020 9:40 7.9 46 610.4 480 0.0 5.0 17.9 3
26/03/2020 9:50 8.3 45 725.2 600 0.0 4.2 15.0 2
26/03/2020 10:00 8.6 43 664.3 530 0.0 4.2 15.0 354
26/03/2020 10:10 8.3 41 728.3 588 0.0 4.5 16.2 355
26/03/2020 10:20 8.6 41 771.5 600 0.0 4.1 14.9 357
26/03/2020 10:30 8.5 40 788.2 600 0.0 4.7 16.9 325
26/03/2020 10:40 8.8 40 785.3 600 0.0 3.9 13.9 317
26/03/2020 10:50 8.9 38 815.0 600 0.0 4.6 16.4 5
26/03/2020 11:00 9.0 39 823.0 600 0.0 4.2 15.3 8
26/03/2020 11:10 9.0 37 837.0 600 0.0 4.1 14.9 358
26/03/2020 11:20 9.2 36 847.0 600 0.0 5.1 18.4 8
26/03/2020 11:30 9.1 35 856.0 600 0.0 4.5 16.3 24
26/03/2020 11:40 9.2 33 864.0 600 0.0 5.5 19.7 19
26/03/2020 11:50 9.4 34 866.0 600 0.0 5.4 19.5 17
26/03/2020 12:00 9.3 31 873.0 600 0.0 5.4 19.5 18
26/03/2020 12:10 9.4 32 879.0 600 0.0 5.2 18.6 14
26/03/2020 12:20 9.7 32 873.0 600 0.0 3.8 13.6 16
26/03/2020 12:30 9.9 31 868.0 600 0.0 3.5 12.6 300
26/03/2020 12:40 10.0 31 869.0 600 0.0 4.0 14.5 25
26/03/2020 12:50 10.1 32 862.0 600 0.0 3.7 13.2 15
26/03/2020 13:00 10.0 33 857.0 600 0.0 3.9 14.1 1
26/03/2020 13:10 10.1 35 848.0 600 0.0 4.3 15.6 6
26/03/2020 13:20 10.3 32 837.0 600 0.0 3.7 13.2 348
26/03/2020 13:30 10.3 32 825.0 600 0.0 3.6 12.8 355
26/03/2020 13:40 10.2 32 813.0 600 0.0 4.7 17.0 357
26/03/2020 13:50 10.0 31 797.0 600 0.0 4.8 17.2 360
26/03/2020 14:00 10.4 30 779.9 600 0.0 3.6 13.0 352
26/03/2020 14:10 10.0 29 764.0 600 0.0 4.3 15.3 4
26/03/2020 14:20 10.1 32 740.2 600 0.0 3.1 11.2 348
26/03/2020 14:30 10.0 31 712.2 600 0.0 5.2 18.8 1
26/03/2020 14:40 9.6 33 683.6 600 0.0 5.3 18.9 6
26/03/2020 14:50 9.3 35 653.4 600 0.0 4.9 17.6 14
26/03/2020 15:00 9.3 33 615.6 600 0.0 4.8 17.2 11
26/03/2020 15:10 9.1 35 595.0 600 0.0 5.2 18.7 13
26/03/2020 15:20 9.3 35 522.4 548 0.0 4.2 14.9 11
26/03/2020 15:30 9.1 35 404.4 410 0.0 2.7 9.5 2
26/03/2020 15:40 9.0 34 342.0 386 0.0 3.1 11.1 326
26/03/2020 15:50 8.9 35 404.9 500 0.0 2.5 9.1 332
26/03/2020 16:00 9.1 36 447.1 600 0.0 2.1 7.4 328
26/03/2020 16:10 9.0 36 420.7 600 0.0 3.0 10.9 356
26/03/2020 16:20 8.8 37 308.3 462 0.0 3.2 11.5 340
26/03/2020 16:30 8.5 38 257.7 324 0.0 3.4 12.3 318
26/03/2020 16:40 8.4 39 318.4 524 0.0 3.5 12.6 310
26/03/2020 16:50 8.8 39 304.3 600 0.0 2.7 9.9 312
26/03/2020 17:00 8.5 38 242.1 600 0.0 3.1 11.1 317
26/03/2020 17:10 8.0 39 208.8 600 0.0 3.0 10.6 303
26/03/2020 17:20 7.8 40 133.8 388 0.0 1.8 6.6 326
26/03/2020 17:30 7.4 44 70.1 124 0.0 3.2 11.6 307
26/03/2020 17:40 7.1 45 51.9 78 0.0 3.0 10.7 299
26/03/2020 17:50 6.8 45 62.5 424 0.0 3.7 13.4 305
26/03/2020 18:00 6.8 44 53.1 600 0.0 3.5 12.7 306
26/03/2020 18:10 6.4 45 23.8 132 0.0 3.1 11.0 310
26/03/2020 18:20 6.2 46 2.4 0 0.0 3.5 12.7 304
26/03/2020 18:30 6.1 47 0.0 0 0.0 3.8 13.7 302
26/03/2020 18:40 5.8 49 0.0 0 0.0 2.7 9.7 309
26/03/2020 18:50 5.5 51 0.0 0 0.0 2.7 9.8 284
26/03/2020 19:00 5.3 54 0.0 0 0.0 3.5 12.6 289
26/03/2020 19:10 5.0 56 0.0 0 0.0 3.8 13.5 293
26/03/2020 19:20 4.9 57 0.0 0 0.0 3.3 12.0 291
26/03/2020 19:30 4.9 58 0.0 0 0.0 3.3 12.0 294
26/03/2020 19:40 4.9 58 0.0 0 0.0 3.6 12.9 298
26/03/2020 19:50 4.9 58 0.0 0 0.0 3.0 10.8 302
26/03/2020 20:00 4.7 58 0.0 0 0.0 2.4 8.6 299
26/03/2020 20:10 4.6 60 0.0 0 0.0 1.3 4.6 303
26/03/2020 20:20 4.4 61 0.0 0 0.0 1.8 6.4 310
26/03/2020 20:30 4.5 61 0.0 0 0.0 1.9 6.9 337
26/03/2020 20:40 4.6 61 0.0 0 0.0 2.3 8.3 325
26/03/2020 20:50 4.5 62 0.0 0 0.0 2.3 8.1 302
26/03/2020 21:00 4.3 62 0.0 0 0.0 3.3 11.9 304
26/03/2020 21:10 4.3 61 0.0 0 0.0 2.6 9.2 310
26/03/2020 21:20 4.0 62 0.0 0 0.0 1.9 6.8 308
26/03/2020 21:30 4.0 62 0.0 0 0.0 1.5 5.2 323
26/03/2020 21:40 3.7 64 0.0 0 0.0 0.5 1.6 333
26/03/2020 21:50 3.1 69 0.0 0 0.0 0.5 1.8 114
26/03/2020 22:00 2.9 71 0.0 0 0.0 0.3 1.2 137
26/03/2020 22:10 2.9 73 0.0 0 0.0 0.5 1.7 111
26/03/2020 22:20 2.8 74 0.0 0 0.0 0.1 0.3 95
26/03/2020 22:30 3.0 74 0.0 0 0.0 0.4 1.5 95
26/03/2020 22:40 2.9 74 0.0 0 0.0 0.3 1.1 132
26/03/2020 22:50 3.2 74 0.0 0 0.0 0.4 1.3 208
26/03/2020 23:00 3.1 76 0.0 0 0.0 0.5 1.9 324
26/03/2020 23:10 3.3 75 0.0 0 0.0 0.8 3.0 64
26/03/2020 23:20 3.3 75 0.0 0 0.0 0.4 1.4 116
26/03/2020 23:30 3.4 73 0.0 0 0.0 0.1 0.5 32
26/03/2020 23:40 3.7 74 0.0 0 0.0 0.0 0.0 27
26/03/2020 23:50 3.7 75 0.0 0 0.0 0.0 0.0 34
Anterior Página 1 de 1 Siguiente

NOTA: Tipo de datos según el color:
   - Valores diarios o 10 minutos correctos
   - Valores diarios calculados a partir de un número de datos 10 minutos menor que 144 y mayor que 120, o de un número de datos semihorarios menor que 48 y mayor que 40 (caso de las estaciones de INTIA y del Ministerio)
   - Valores diez minutos estimados


Contacto        Enlaces        Aviso legal